createdAt,value
2022-11-22T00:01:21.920Z,32.55
2022-11-22T00:03:50.999Z,29.35
2022-11-22T00:06:19.304Z,31.30
2022-11-22T00:08:48.390Z,32.55
2022-11-22T00:11:16.734Z,32.00
2022-11-22T00:13:45.026Z,31.20
2022-11-22T00:16:13.455Z,33.75
2022-11-22T00:18:43.123Z,29.25
2022-11-22T00:21:11.477Z,29.63
2022-11-22T00:23:39.814Z,31.92
2022-11-22T00:26:11.934Z,31.38
2022-11-22T00:28:40.630Z,31.55
2022-11-22T00:31:08.956Z,31.20
2022-11-22T00:33:37.279Z,32.80
2022-11-22T00:36:07.156Z,34.22
2022-11-22T00:38:35.575Z,33.25
2022-11-22T00:41:04.072Z,34.67
2022-11-22T00:43:32.594Z,34.83
2022-11-22T00:46:01.386Z,36.72
2022-11-22T00:48:29.881Z,33.10
2022-11-22T00:50:58.241Z,31.98
2022-11-22T00:53:27.909Z,34.13
2022-11-22T00:55:56.216Z,33.05
2022-11-22T00:58:24.556Z,29.63
2022-11-22T01:00:56.545Z,37.38
2022-11-22T01:03:26.187Z,34.40
2022-11-22T01:05:54.529Z,33.00
2022-11-22T01:08:22.860Z,28.80
2022-11-22T01:10:57.839Z,32.50
2022-11-22T01:13:26.682Z,34.95
2022-11-22T01:15:55.400Z,31.73
2022-11-22T01:18:23.704Z,30.50
2022-11-22T01:20:52.182Z,33.25
2022-11-22T01:23:20.497Z,33.55
2022-11-22T01:25:48.837Z,33.42
2022-11-22T01:28:18.734Z,31.90
2022-11-22T01:30:47.073Z,32.42
2022-11-22T01:33:15.415Z,30.90
2022-11-22T01:35:44.238Z,32.97
2022-11-22T01:38:12.821Z,29.92
2022-11-22T01:40:41.245Z,32.80
2022-11-22T01:43:17.650Z,34.35
2022-11-22T01:45:53.001Z,28.92
2022-11-22T01:48:33.421Z,33.00
2022-11-22T01:51:06.590Z,37.42
2022-11-22T01:53:38.089Z,31.23
2022-11-22T01:56:11.114Z,33.97
2022-11-22T01:58:42.618Z,35.50
2022-11-22T02:01:12.665Z,37.10
2022-11-22T02:03:46.119Z,36.30
2022-11-22T02:06:15.517Z,33.90
2022-11-22T02:08:52.013Z,33.08
2022-11-22T02:11:22.362Z,32.03
2022-11-22T02:13:53.688Z,32.47
2022-11-22T02:16:23.861Z,33.28
2022-11-22T02:18:52.247Z,33.72
2022-11-22T02:21:20.623Z,35.47
2022-11-22T02:23:57.654Z,33.65
2022-11-22T02:26:30.297Z,34.42
2022-11-22T02:29:03.965Z,36.35
2022-11-22T02:31:50.023Z,32.95
2022-11-22T02:34:18.330Z,32.85
2022-11-22T02:36:49.751Z,36.20
2022-11-22T02:39:21.373Z,36.55
2022-11-22T02:41:51.666Z,37.67
2022-11-22T02:44:21.431Z,31.20
2022-11-22T02:46:52.030Z,33.55
2022-11-22T02:49:21.369Z,36.97
2022-11-22T02:51:50.374Z,37.40
2022-11-22T02:54:18.977Z,32.83
2022-11-22T02:56:47.717Z,35.25
2022-11-22T02:59:17.466Z,38.58
2022-11-22T03:01:47.728Z,33.97
2022-11-22T03:04:24.769Z,36.47
2022-11-22T03:06:55.649Z,35.72
2022-11-22T03:09:24.732Z,36.10
2022-11-22T03:11:54.579Z,30.85
2022-11-22T03:14:24.685Z,37.33
2022-11-22T03:16:53.005Z,33.40
2022-11-22T03:19:21.455Z,34.55
2022-11-22T03:21:50.155Z,39.92
2022-11-22T03:24:20.140Z,35.97
2022-11-22T03:26:49.541Z,35.35
2022-11-22T03:29:18.201Z,35.42
2022-11-22T03:31:47.881Z,36.80
2022-11-22T03:34:16.493Z,32.75
2022-11-22T03:36:44.881Z,40.67
2022-11-22T03:39:13.381Z,36.70
2022-11-22T03:41:41.719Z,40.25
2022-11-22T03:44:10.049Z,35.92
2022-11-22T03:46:38.413Z,37.25
2022-11-22T03:49:08.123Z,37.50
2022-11-22T03:51:36.424Z,36.05
2022-11-22T03:54:04.938Z,36.83
2022-11-22T03:56:33.377Z,39.97
2022-11-22T03:59:01.780Z,35.15
2022-11-22T04:01:30.409Z,36.00
2022-11-22T04:03:58.882Z,35.15
2022-11-22T04:06:28.595Z,37.67
2022-11-22T04:08:56.951Z,39.05
2022-11-22T04:11:25.485Z,35.35
2022-11-22T04:14:11.405Z,39.55
2022-11-22T04:16:39.982Z,38.38
2022-11-22T04:19:08.520Z,38.97
2022-11-22T04:21:37.212Z,37.58
2022-11-22T04:24:25.645Z,44.70
2022-11-22T04:26:54.703Z,41.60
2022-11-22T04:29:23.514Z,40.83
2022-11-22T04:32:18.301Z,40.95
2022-11-22T04:34:46.606Z,43.70
2022-11-22T04:37:16.283Z,42.40
2022-11-22T04:39:44.597Z,44.17
2022-11-22T04:42:30.269Z,43.13
2022-11-22T04:44:58.606Z,44.55
2022-11-22T04:47:58.765Z,42.25
2022-11-22T04:50:45.593Z,50.70
2022-11-22T04:53:15.873Z,44.05
2022-11-22T04:55:47.122Z,46.45
2022-11-22T04:58:15.870Z,42.50
2022-11-22T05:00:44.699Z,48.83
2022-11-22T05:03:13.588Z,47.22
2022-11-22T05:05:45.083Z,47.80
2022-11-22T05:08:15.262Z,49.85
2022-11-22T05:10:59.305Z,46.33
2022-11-22T05:13:30.397Z,51.55
2022-11-22T05:15:59.670Z,46.80
2022-11-22T05:18:29.215Z,45.58
2022-11-22T05:20:58.053Z,43.70
2022-11-22T05:23:45.160Z,43.97
2022-11-22T05:26:13.446Z,46.83
2022-11-22T05:28:41.792Z,46.65
2022-11-22T05:31:11.633Z,45.95
2022-11-22T05:33:42.226Z,47.03
2022-11-22T05:36:11.594Z,46.17
2022-11-22T05:38:41.359Z,49.47
2022-11-22T05:41:11.522Z,43.95
2022-11-22T05:43:40.765Z,44.53
2022-11-22T05:46:11.241Z,43.97
2022-11-22T05:48:41.615Z,51.78
2022-11-22T05:51:12.629Z,45.90
2022-11-22T05:53:43.829Z,48.25
2022-11-22T05:56:14.114Z,45.63
2022-11-22T05:58:43.325Z,45.22
2022-11-22T06:01:13.447Z,46.50
2022-11-22T06:03:42.052Z,44.70
2022-11-22T06:06:11.402Z,45.50
2022-11-22T06:08:44.907Z,45.03
2022-11-22T06:11:16.370Z,47.80
2022-11-22T06:13:46.122Z,45.08
2022-11-22T06:16:15.193Z,44.58
2022-11-22T06:18:43.792Z,41.92
2022-11-22T06:21:14.543Z,47.55
2022-11-22T06:23:44.477Z,46.70
2022-11-22T06:26:14.894Z,41.75
2022-11-22T06:28:43.321Z,42.33
2022-11-22T06:31:14.074Z,50.03
2022-11-22T06:33:43.233Z,43.45
2022-11-22T06:36:13.573Z,45.67
2022-11-22T06:38:44.731Z,43.53
2022-11-22T06:41:14.639Z,46.78
2022-11-22T06:43:48.365Z,50.45
2022-11-22T06:46:18.688Z,47.65
2022-11-22T06:48:47.869Z,45.42
2022-11-22T06:51:18.341Z,48.25
2022-11-22T06:53:49.510Z,46.95
2022-11-22T06:56:19.818Z,44.15
2022-11-22T06:58:49.268Z,51.67
2022-11-22T07:01:19.778Z,45.58
2022-11-22T07:03:48.715Z,39.47
2022-11-22T07:06:19.060Z,46.80
2022-11-22T07:08:48.825Z,48.97
2022-11-22T07:11:19.496Z,47.40
2022-11-22T07:13:48.482Z,45.75
2022-11-22T07:16:19.091Z,50.45
2022-11-22T07:18:47.886Z,46.67
2022-11-22T07:21:18.661Z,50.08
2022-11-22T07:23:49.771Z,52.42
2022-11-22T07:26:19.820Z,50.92
2022-11-22T07:28:48.479Z,42.95
2022-11-22T07:31:18.466Z,50.65
2022-11-22T07:33:47.355Z,53.08
2022-11-22T07:36:17.451Z,64.20
2022-11-22T07:38:45.887Z,73.75
2022-11-22T07:41:16.108Z,45.42
2022-11-22T07:43:45.956Z,60.78
2022-11-22T07:46:23.267Z,63.75
2022-11-22T07:48:51.657Z,70.07
2022-11-22T07:51:20.182Z,55.20
2022-11-22T07:53:48.720Z,53.17
2022-11-22T07:56:18.652Z,61.17
2022-11-22T07:58:47.133Z,58.67
2022-11-22T08:01:17.801Z,57.95
2022-11-22T08:03:46.912Z,52.00
2022-11-22T08:06:16.490Z,55.35
2022-11-22T08:08:45.277Z,59.22
2022-11-22T08:11:13.848Z,47.35
2022-11-22T08:13:44.510Z,57.30
2022-11-22T08:16:14.934Z,54.80
2022-11-22T08:18:47.707Z,62.58
2022-11-22T08:21:17.544Z,55.20
2022-11-22T08:23:47.263Z,56.45
2022-11-22T08:26:18.200Z,53.28
2022-11-22T08:28:47.989Z,49.65
2022-11-22T08:31:19.681Z,54.78
2022-11-22T08:33:48.778Z,52.28
2022-11-22T08:36:17.211Z,57.97
2022-11-22T08:38:45.539Z,54.17
2022-11-22T08:41:13.901Z,63.90
2022-11-22T08:43:42.202Z,56.90
2022-11-22T08:46:12.098Z,53.70
2022-11-22T08:48:40.490Z,50.13
2022-11-22T08:51:10.777Z,54.97
2022-11-22T08:53:40.969Z,66.40
2022-11-22T08:56:11.883Z,56.88
2022-11-22T08:58:40.545Z,54.42
2022-11-22T09:01:11.690Z,55.95
2022-11-22T09:03:41.357Z,58.53
2022-11-22T09:09:15.582Z,57.25
2022-11-22T09:11:48.148Z,55.72
2022-11-22T09:14:16.665Z,54.17
2022-11-22T09:16:46.339Z,56.20
2022-11-22T09:19:14.697Z,58.60
2022-11-22T09:21:43.040Z,57.78
2022-11-22T09:24:11.386Z,65.25
2022-11-22T09:26:39.722Z,58.50
2022-11-22T09:29:08.809Z,56.67
2022-11-22T09:31:37.148Z,60.55
2022-11-22T09:34:08.161Z,64.13
2022-11-22T09:36:36.731Z,58.78
2022-11-22T09:39:05.199Z,60.55
2022-11-22T09:41:54.293Z,56.25
2022-11-22T09:44:33.138Z,53.17
2022-11-22T09:47:11.903Z,52.40
2022-11-22T09:49:53.967Z,50.47
2022-11-22T09:52:29.125Z,60.15
2022-11-22T09:55:00.596Z,60.38
2022-11-22T09:57:34.770Z,62.45
2022-11-22T10:00:05.634Z,54.72
2022-11-22T10:02:58.763Z,57.15
2022-11-22T10:05:33.328Z,59.40
2022-11-22T10:08:09.505Z,57.92
2022-11-22T10:10:43.040Z,56.28
2022-11-22T10:13:17.965Z,53.57
2022-11-22T10:15:55.237Z,56.83
2022-11-22T10:18:32.664Z,62.40
2022-11-22T10:21:02.805Z,61.30
2022-11-22T10:23:32.852Z,60.70
2022-11-22T10:26:05.995Z,60.40
2022-11-22T10:28:37.052Z,57.92
2022-11-22T10:31:16.178Z,56.15
2022-11-22T10:33:57.080Z,61.03
2022-11-22T10:36:39.962Z,57.58
2022-11-22T10:39:20.349Z,58.13
2022-11-22T10:42:03.476Z,63.03
2022-11-22T10:44:41.641Z,55.00
2022-11-22T10:47:18.118Z,58.35
2022-11-22T10:49:56.600Z,68.03
2022-11-22T10:52:34.940Z,59.75
2022-11-22T10:55:19.503Z,53.75
2022-11-22T10:57:56.605Z,58.65
2022-11-22T11:00:26.042Z,54.50
2022-11-22T11:03:21.953Z,59.53
2022-11-22T11:11:40.992Z,61.15
2022-11-22T11:14:16.670Z,63.08
2022-11-22T11:16:45.606Z,57.05
2022-11-22T11:19:18.680Z,58.75
2022-11-22T11:22:00.869Z,61.17
2022-11-22T11:24:32.453Z,64.00
2022-11-22T11:27:01.968Z,57.45
2022-11-22T11:29:42.478Z,57.28
2022-11-22T11:32:13.230Z,61.58
2022-11-22T11:34:45.249Z,67.75
2022-11-22T11:37:24.093Z,65.40
2022-11-22T11:39:53.918Z,53.30
2022-11-22T11:42:27.896Z,55.20
2022-11-22T11:45:16.331Z,57.33
2022-11-22T11:47:44.681Z,53.00
2022-11-22T11:50:23.974Z,54.97
2022-11-22T11:52:56.198Z,61.00
2022-11-22T11:55:26.471Z,59.17
2022-11-22T11:57:55.267Z,50.45
2022-11-22T12:00:39.120Z,54.95
2022-11-22T12:03:10.197Z,50.10
2022-11-22T12:05:38.591Z,51.60
2022-11-22T12:08:29.788Z,52.33
2022-11-22T12:11:03.930Z,51.63
2022-11-22T12:14:04.709Z,58.90
2022-11-22T12:16:30.905Z,54.67
2022-11-22T12:19:05.136Z,50.05
2022-11-22T12:21:44.357Z,50.17
2022-11-22T12:27:06.749Z,51.35
2022-11-22T12:29:38.484Z,53.92
2022-11-22T12:32:14.014Z,55.88
2022-11-22T12:34:51.828Z,54.35
2022-11-22T12:37:24.770Z,58.38
2022-11-22T12:39:55.845Z,52.13
2022-11-22T12:42:33.326Z,59.17
2022-11-22T12:45:07.382Z,57.22
2022-11-22T12:47:40.294Z,63.00
2022-11-22T12:50:16.128Z,49.17
2022-11-22T12:52:48.664Z,54.92
2022-11-22T12:55:20.693Z,50.97
2022-11-22T12:57:55.737Z,52.17
2022-11-22T13:00:28.087Z,64.03
2022-11-22T13:03:02.656Z,47.97
2022-11-22T13:05:35.518Z,57.67
2022-11-22T13:08:14.646Z,52.33
2022-11-22T13:10:49.373Z,59.25
2022-11-22T13:13:25.593Z,54.85
2022-11-22T13:15:56.372Z,55.55
2022-11-22T13:18:28.459Z,62.45
2022-11-22T13:21:05.413Z,53.88
2022-11-22T13:23:54.576Z,52.70
2022-11-22T13:26:31.568Z,74.85
2022-11-22T13:29:09.211Z,59.00
2022-11-22T13:31:40.976Z,54.72
2022-11-22T13:34:26.331Z,52.95
2022-11-22T13:36:59.152Z,59.47
2022-11-22T13:39:31.233Z,58.28
2022-11-22T13:42:06.148Z,55.45
2022-11-22T13:45:21.542Z,55.28
2022-11-22T13:47:50.642Z,54.75
2022-11-22T13:50:54.900Z,52.13
2022-11-22T13:53:30.051Z,55.08
2022-11-22T13:56:19.828Z,50.10
2022-11-22T13:58:55.702Z,56.20
2022-11-22T14:01:58.861Z,57.92
2022-11-22T14:04:40.245Z,55.42
2022-11-22T14:07:27.465Z,58.90
2022-11-22T14:09:58.593Z,59.05
2022-11-22T14:12:55.547Z,56.28
2022-11-22T14:15:42.784Z,57.58
2022-11-22T14:18:30.055Z,56.78
2022-11-22T14:21:04.770Z,63.72
2022-11-22T14:23:44.369Z,58.88
2022-11-22T14:26:23.993Z,273.02
2022-11-22T14:29:18.218Z,82.13
2022-11-22T14:32:03.971Z,70.13
2022-11-22T14:34:33.867Z,53.33
2022-11-22T14:37:45.052Z,54.00
2022-11-22T14:40:27.147Z,52.30
2022-11-22T14:42:59.567Z,58.55
2022-11-22T14:45:39.883Z,57.95
2022-11-22T14:48:18.109Z,52.78
2022-11-22T14:50:52.000Z,54.47
2022-11-22T14:53:28.489Z,59.97
2022-11-22T14:56:07.259Z,61.38
2022-11-22T14:58:40.173Z,51.83
2022-11-22T15:01:44.528Z,58.25
2022-11-22T15:09:11.393Z,55.00
2022-11-22T15:09:12.947Z,60.10
2022-11-22T15:11:09.506Z,53.25
2022-11-22T15:14:00.342Z,54.88
2022-11-22T15:57:26.676Z,71.47
2022-11-22T15:59:57.163Z,62.92
2022-11-22T16:02:27.754Z,68.13
2022-11-22T16:06:08.095Z,68.00
2022-11-22T16:07:50.057Z,57.20
2022-11-22T16:10:22.062Z,58.75
2022-11-22T16:12:51.773Z,55.58
2022-11-22T16:15:28.351Z,59.72
2022-11-22T16:18:08.606Z,60.22
2022-11-22T16:20:37.894Z,61.58
2022-11-22T16:23:19.991Z,65.85
2022-11-22T16:25:50.889Z,74.18
2022-11-22T16:28:28.300Z,79.75
2022-11-22T16:30:59.659Z,61.72
2022-11-22T16:33:28.110Z,61.47
2022-11-22T16:35:58.572Z,64.45
2022-11-22T16:38:28.000Z,64.55
2022-11-22T16:40:59.355Z,61.97
2022-11-22T16:43:34.370Z,62.80
2022-11-22T16:46:04.917Z,62.45
2022-11-22T16:48:33.853Z,65.93
2022-11-22T16:51:06.936Z,62.47
2022-11-22T16:53:41.838Z,88.05
2022-11-22T16:56:17.785Z,66.53
2022-11-22T16:58:46.482Z,63.10
2022-11-22T17:01:19.986Z,65.95
2022-11-22T17:03:50.575Z,79.60
2022-11-22T17:06:20.808Z,74.63
2022-11-22T17:08:50.617Z,60.83
2022-11-22T17:11:20.600Z,57.20
2022-11-22T17:13:49.553Z,68.18
2022-11-22T17:16:19.260Z,65.72
2022-11-22T17:18:48.566Z,61.78
2022-11-22T17:21:26.668Z,61.47
2022-11-22T17:23:57.770Z,60.70
2022-11-22T17:26:26.434Z,65.60
2022-11-22T17:28:55.064Z,62.25
2022-11-22T17:31:25.110Z,65.65
2022-11-22T17:33:54.934Z,71.18
2022-11-22T17:36:27.562Z,65.90
2022-11-22T17:38:56.163Z,57.30
2022-11-22T17:41:25.013Z,65.25
2022-11-22T17:43:53.944Z,75.85
2022-11-22T17:46:22.288Z,71.55
2022-11-22T17:48:57.835Z,72.40
2022-11-22T17:51:27.376Z,63.97
2022-11-22T17:53:58.328Z,66.93
2022-11-22T17:56:27.381Z,62.40
2022-11-22T17:58:55.848Z,63.67
2022-11-22T18:01:24.869Z,74.03
2022-11-22T18:03:53.579Z,64.15
2022-11-22T18:06:23.416Z,68.78
2022-11-22T18:08:52.107Z,62.25
2022-11-22T18:11:20.929Z,69.43
2022-11-22T18:13:49.323Z,80.65
2022-11-22T18:16:18.422Z,68.68
2022-11-22T18:19:02.309Z,74.00
2022-11-22T18:21:33.934Z,66.73
2022-11-22T18:24:02.998Z,70.75
2022-11-22T18:26:40.260Z,72.45
2022-11-22T18:31:58.692Z,63.95
2022-11-22T18:34:28.168Z,69.20
2022-11-22T18:37:03.118Z,68.30
2022-11-22T18:39:34.531Z,65.70
2022-11-22T18:42:03.541Z,65.90
2022-11-22T18:44:31.955Z,72.57
2022-11-22T18:47:00.302Z,63.42
2022-11-22T18:49:29.817Z,71.93
2022-11-22T18:51:59.905Z,69.43
2022-11-22T18:54:37.475Z,77.60
2022-11-22T18:57:05.813Z,72.75
2022-11-22T18:59:34.369Z,73.20
2022-11-22T19:02:02.767Z,66.15
2022-11-22T19:04:31.416Z,80.13
2022-11-22T19:07:01.146Z,76.50
2022-11-22T19:09:30.762Z,70.78
2022-11-22T19:11:59.127Z,69.03
2022-11-22T19:14:29.573Z,74.85
2022-11-22T19:16:58.499Z,78.45
2022-11-22T19:19:27.612Z,78.18
2022-11-22T19:21:55.952Z,70.03
2022-11-22T19:24:25.692Z,64.70
2022-11-22T19:26:54.342Z,72.75
2022-11-22T19:29:23.105Z,65.75
2022-11-22T19:31:51.877Z,71.78
2022-11-22T19:34:20.217Z,67.47
2022-11-22T19:36:48.529Z,83.88
2022-11-22T19:39:17.051Z,64.53
2022-11-22T19:41:47.045Z,72.72
2022-11-22T19:44:15.577Z,73.43
2022-11-22T19:46:43.949Z,70.55
2022-11-22T19:49:12.591Z,70.55
2022-11-22T19:51:40.952Z,75.20
2022-11-22T19:54:09.373Z,80.63
2022-11-22T19:56:39.515Z,69.30
2022-11-22T19:59:10.379Z,81.32
2022-11-22T20:01:39.817Z,78.45
2022-11-22T20:04:08.794Z,76.47
2022-11-22T20:06:37.552Z,76.28
2022-11-22T20:09:09.189Z,71.40
2022-11-22T20:11:38.012Z,70.13
2022-11-22T20:14:06.687Z,62.60
2022-11-22T20:16:38.336Z,67.85
2022-11-22T20:19:11.337Z,62.65
2022-11-22T20:21:43.438Z,71.65
2022-11-22T20:24:13.162Z,71.65
2022-11-22T20:26:42.544Z,68.03
2022-11-22T20:29:13.301Z,64.57
2022-11-22T20:32:15.740Z,64.15
2022-11-22T20:34:45.398Z,61.55
2022-11-22T20:37:13.853Z,66.55
2022-11-22T20:39:42.285Z,59.05
2022-11-22T20:42:33.630Z,64.25
2022-11-22T20:45:00.182Z,63.75
2022-11-22T20:47:31.657Z,58.60
2022-11-22T20:50:00.018Z,63.25
2022-11-22T20:52:28.453Z,65.40
2022-11-22T20:55:01.681Z,64.00
2022-11-22T20:57:33.126Z,63.95
2022-11-22T21:00:01.506Z,65.43
2022-11-22T21:02:31.431Z,67.22
2022-11-22T21:04:59.740Z,77.90
2022-11-22T21:07:28.159Z,66.30
2022-11-22T21:09:56.502Z,66.60
2022-11-22T21:12:25.138Z,62.22
2022-11-22T21:14:53.912Z,64.03
2022-11-22T21:17:41.941Z,62.83
2022-11-22T21:20:12.758Z,63.72
2022-11-22T21:22:41.364Z,67.72
2022-11-22T21:25:12.706Z,60.95
2022-11-22T21:27:41.038Z,59.35
2022-11-22T21:30:10.623Z,65.13
2022-11-22T21:32:38.937Z,59.88
2022-11-22T21:35:08.425Z,69.28
2022-11-22T21:37:38.214Z,66.82
2022-11-22T21:40:07.773Z,75.85
2022-11-22T21:42:36.898Z,72.15
2022-11-22T21:45:05.965Z,65.47
2022-11-22T21:47:34.302Z,64.57
2022-11-22T21:50:11.492Z,69.80
2022-11-22T21:52:42.310Z,59.10
2022-11-22T21:55:11.611Z,61.95
2022-11-22T21:57:40.050Z,67.07
2022-11-22T22:00:10.201Z,58.35
2022-11-22T22:02:38.653Z,65.00
2022-11-22T22:05:07.601Z,61.15
2022-11-22T22:07:52.215Z,64.57
2022-11-22T22:10:22.814Z,68.38
2022-11-22T22:12:52.073Z,64.75
2022-11-22T22:15:20.592Z,60.42
2022-11-22T22:17:48.972Z,57.92
2022-11-22T22:20:17.470Z,66.65
2022-11-22T22:22:46.890Z,70.63
2022-11-22T22:25:15.330Z,65.63
2022-11-22T22:27:45.859Z,63.97
2022-11-22T22:30:15.869Z,65.32
2022-11-22T22:32:44.312Z,61.58
2022-11-22T22:35:12.725Z,56.88
2022-11-22T22:37:41.044Z,60.80
2022-11-22T22:40:09.489Z,62.97
2022-11-22T22:42:37.835Z,71.03
2022-11-22T22:45:08.393Z,61.60
2022-11-22T22:47:36.713Z,65.57
2022-11-22T22:50:05.779Z,66.93
2022-11-22T22:52:35.073Z,70.28
2022-11-22T22:55:03.382Z,78.03
2022-11-22T22:57:31.845Z,65.43
2022-11-22T23:00:00.233Z,63.13
2022-11-22T23:02:30.248Z,64.10
2022-11-22T23:04:58.631Z,64.57
2022-11-22T23:07:26.998Z,69.38
2022-11-22T23:09:55.364Z,67.55
2022-11-22T23:12:23.677Z,63.90
2022-11-22T23:14:52.043Z,69.20
2022-11-22T23:17:20.393Z,68.78
2022-11-22T23:19:50.037Z,66.20
2022-11-22T23:22:23.303Z,61.88
2022-11-22T23:24:54.020Z,61.38
2022-11-22T23:27:22.351Z,60.60
2022-11-22T23:29:50.662Z,67.13
2022-11-22T23:32:18.984Z,73.13
2022-11-22T23:34:47.333Z,67.05
2022-11-22T23:37:16.989Z,62.33
2022-11-22T23:39:45.319Z,71.53
2022-11-22T23:42:13.599Z,72.82
2022-11-22T23:44:41.944Z,68.75
2022-11-22T23:47:10.237Z,67.65
2022-11-22T23:49:38.537Z,71.43
2022-11-22T23:52:06.990Z,69.10
2022-11-22T23:54:36.656Z,65.88
2022-11-22T23:57:05.045Z,67.15
2022-11-22T23:59:33.660Z,69.15
